sensor_id;sensor_type;location;lat;lon;timestamp;pressure;altitude;pressure_sealevel;temperature;humidity
17230;BME280;8731;50.364;8.958;2023-07-24T00:04:11;99240.25;;;19.28;90.56
17230;BME280;8731;50.364;8.958;2023-07-24T00:08:33;99244.59;;;19.29;90.64
17230;BME280;8731;50.364;8.958;2023-07-24T00:12:56;99242.97;;;19.12;91.82
17230;BME280;8731;50.364;8.958;2023-07-24T00:17:20;99236.25;;;19.16;91.49
17230;BME280;8731;50.364;8.958;2023-07-24T00:21:43;99245.97;;;19.02;91.17
17230;BME280;8731;50.364;8.958;2023-07-24T00:26:05;99244.97;;;18.98;91.20
17230;BME280;8731;50.364;8.958;2023-07-24T00:30:28;99242.22;;;19.15;88.66
17230;BME280;8731;50.364;8.958;2023-07-24T00:34:52;99237.09;;;18.76;93.74
17230;BME280;8731;50.364;8.958;2023-07-24T00:39:14;99239.25;;;18.86;92.26
17230;BME280;8731;50.364;8.958;2023-07-24T00:43:37;99234.84;;;18.84;92.03
17230;BME280;8731;50.364;8.958;2023-07-24T00:48:00;99226.72;;;18.94;90.01
17230;BME280;8731;50.364;8.958;2023-07-24T00:52:24;99230.50;;;19.02;87.94
17230;BME280;8731;50.364;8.958;2023-07-24T00:56:47;99231.50;;;19.06;87.18
17230;BME280;8731;50.364;8.958;2023-07-24T01:01:10;99209.09;;;19.05;86.66
17230;BME280;8731;50.364;8.958;2023-07-24T01:05:33;99207.47;;;19.07;86.43
17230;BME280;8731;50.364;8.958;2023-07-24T01:09:57;99209.25;;;19.08;86.16
17230;BME280;8731;50.364;8.958;2023-07-24T01:14:25;99203.19;;;19.07;86.44
17230;BME280;8731;50.364;8.958;2023-07-24T01:18:55;99212.75;;;19.10;86.20
17230;BME280;8731;50.364;8.958;2023-07-24T01:23:37;99207.59;;;19.10;86.73
17230;BME280;8731;50.364;8.958;2023-07-24T01:28:08;99196.34;;;19.08;87.47
17230;BME280;8731;50.364;8.958;2023-07-24T01:32:30;99186.00;;;19.08;87.48
17230;BME280;8731;50.364;8.958;2023-07-24T01:36:53;99186.97;;;19.10;86.63
17230;BME280;8731;50.364;8.958;2023-07-24T01:41:16;99190.22;;;19.06;87.35
17230;BME280;8731;50.364;8.958;2023-07-24T01:45:41;99182.50;;;19.06;86.98
17230;BME280;8731;50.364;8.958;2023-07-24T01:50:04;99181.53;;;19.04;86.58
17230;BME280;8731;50.364;8.958;2023-07-24T01:54:27;99178.97;;;19.04;86.91
17230;BME280;8731;50.364;8.958;2023-07-24T01:58:49;99172.94;;;18.84;88.78
17230;BME280;8731;50.364;8.958;2023-07-24T02:03:13;99161.94;;;18.68;90.59
17230;BME280;8731;50.364;8.958;2023-07-24T02:07:36;99150.44;;;18.23;95.03
17230;BME280;8731;50.364;8.958;2023-07-24T02:11:58;99131.63;;;18.63;89.76
17230;BME280;8731;50.364;8.958;2023-07-24T02:16:22;99132.41;;;18.62;88.80
17230;BME280;8731;50.364;8.958;2023-07-24T02:20:50;99135.19;;;18.47;90.15
17230;BME280;8731;50.364;8.958;2023-07-24T02:25:12;99120.31;;;18.41;90.57
17230;BME280;8731;50.364;8.958;2023-07-24T02:29:35;99108.13;;;18.37;91.28
17230;BME280;8731;50.364;8.958;2023-07-24T02:33:57;99107.03;;;18.52;89.36
17230;BME280;8731;50.364;8.958;2023-07-24T02:38:21;99101.53;;;18.44;90.49
17230;BME280;8731;50.364;8.958;2023-07-24T02:42:44;99094.78;;;18.46;89.66
17230;BME280;8731;50.364;8.958;2023-07-24T02:47:06;99100.31;;;18.55;87.75
17230;BME280;8731;50.364;8.958;2023-07-24T02:51:28;99094.84;;;18.48;88.94
17230;BME280;8731;50.364;8.958;2023-07-24T02:55:53;99096.38;;;18.44;89.32
17230;BME280;8731;50.364;8.958;2023-07-24T03:00:15;99103.53;;;18.50;87.97
17230;BME280;8731;50.364;8.958;2023-07-24T03:04:38;99104.72;;;18.38;89.69
17230;BME280;8731;50.364;8.958;2023-07-24T03:09:00;99110.97;;;18.44;88.55
17230;BME280;8731;50.364;8.958;2023-07-24T03:13:24;99117.28;;;18.50;87.47
17230;BME280;8731;50.364;8.958;2023-07-24T03:17:47;99110.31;;;18.48;87.55
17230;BME280;8731;50.364;8.958;2023-07-24T03:22:09;99123.31;;;18.51;87.57
17230;BME280;8731;50.364;8.958;2023-07-24T03:26:31;99129.22;;;18.48;88.16
17230;BME280;8731;50.364;8.958;2023-07-24T03:30:56;99126.16;;;18.57;86.92
17230;BME280;8731;50.364;8.958;2023-07-24T03:35:18;99124.34;;;18.54;88.15
17230;BME280;8731;50.364;8.958;2023-07-24T03:39:41;99122.03;;;18.60;86.82
17230;BME280;8731;50.364;8.958;2023-07-24T03:44:04;99104.13;;;18.63;86.51
17230;BME280;8731;50.364;8.958;2023-07-24T03:48:27;99100.50;;;18.60;87.89
17230;BME280;8731;50.364;8.958;2023-07-24T03:52:50;99089.94;;;18.54;88.62
17230;BME280;8731;50.364;8.958;2023-07-24T03:57:12;99091.91;;;18.59;86.23
17230;BME280;8731;50.364;8.958;2023-07-24T04:01:35;99087.31;;;18.52;87.64
17230;BME280;8731;50.364;8.958;2023-07-24T04:05:59;99070.81;;;18.49;87.93
17230;BME280;8731;50.364;8.958;2023-07-24T04:10:21;99055.53;;;18.53;87.26
17230;BME280;8731;50.364;8.958;2023-07-24T04:14:44;99054.97;;;18.60;86.02
17230;BME280;8731;50.364;8.958;2023-07-24T04:19:06;99054.38;;;18.66;85.33
17230;BME280;8731;50.364;8.958;2023-07-24T04:23:30;99051.00;;;18.67;84.81
17230;BME280;8731;50.364;8.958;2023-07-24T04:27:52;99037.44;;;18.71;84.82
17230;BME280;8731;50.364;8.958;2023-07-24T04:32:15;99045.31;;;18.74;85.59
17230;BME280;8731;50.364;8.958;2023-07-24T04:36:37;99040.50;;;18.83;84.86
17230;BME280;8731;50.364;8.958;2023-07-24T04:41:02;99038.31;;;18.92;83.92
17230;BME280;8731;50.364;8.958;2023-07-24T04:45:24;99045.72;;;18.85;85.94
17230;BME280;8731;50.364;8.958;2023-07-24T04:49:47;99041.97;;;18.97;83.93
17230;BME280;8731;50.364;8.958;2023-07-24T04:54:09;99047.44;;;19.26;83.82
17230;BME280;8731;50.364;8.958;2023-07-24T04:58:33;99049.72;;;19.61;81.88
17230;BME280;8731;50.364;8.958;2023-07-24T05:02:55;99043.28;;;19.73;80.99
17230;BME280;8731;50.364;8.958;2023-07-24T05:07:18;99053.78;;;19.77;80.69
17230;BME280;8731;50.364;8.958;2023-07-24T05:11:40;99064.81;;;19.96;80.81
17230;BME280;8731;50.364;8.958;2023-07-24T05:16:06;99048.28;;;20.14;80.17
17230;BME280;8731;50.364;8.958;2023-07-24T05:20:28;99043.47;;;20.25;79.89
17230;BME280;8731;50.364;8.958;2023-07-24T05:24:51;99039.81;;;20.18;79.84
17230;BME280;8731;50.364;8.958;2023-07-24T05:29:13;99047.16;;;20.32;79.89
17230;BME280;8731;50.364;8.958;2023-07-24T05:33:37;99076.66;;;20.37;79.97
17230;BME280;8731;50.364;8.958;2023-07-24T05:37:59;99069.59;;;20.33;80.05
17230;BME280;8731;50.364;8.958;2023-07-24T05:42:22;99072.19;;;20.33;79.60
17230;BME280;8731;50.364;8.958;2023-07-24T05:46:44;99075.59;;;20.32;79.91
17230;BME280;8731;50.364;8.958;2023-07-24T05:51:08;99069.53;;;20.31;79.33
17230;BME280;8731;50.364;8.958;2023-07-24T05:55:32;99059.16;;;20.30;79.21
17230;BME280;8731;50.364;8.958;2023-07-24T05:59:54;99046.53;;;20.37;78.62
17230;BME280;8731;50.364;8.958;2023-07-24T06:04:17;99037.50;;;20.50;78.32
17230;BME280;8731;50.364;8.958;2023-07-24T06:08:40;99033.38;;;20.80;78.29
17230;BME280;8731;50.364;8.958;2023-07-24T06:13:03;99044.66;;;21.08;77.37
17230;BME280;8731;50.364;8.958;2023-07-24T06:17:25;99036.97;;;21.36;76.34
17230;BME280;8731;50.364;8.958;2023-07-24T06:21:48;99040.63;;;21.43;75.34
17230;BME280;8731;50.364;8.958;2023-07-24T06:26:12;99034.38;;;21.65;74.58
17230;BME280;8731;50.364;8.958;2023-07-24T06:30:34;99029.13;;;21.92;73.92
17230;BME280;8731;50.364;8.958;2023-07-24T06:34:56;99052.91;;;22.05;73.25
17230;BME280;8731;50.364;8.958;2023-07-24T06:39:19;99043.31;;;22.03;71.99
17230;BME280;8731;50.364;8.958;2023-07-24T06:43:43;99046.94;;;22.08;72.03
17230;BME280;8731;50.364;8.958;2023-07-24T06:48:05;99037.38;;;22.37;70.41
17230;BME280;8731;50.364;8.958;2023-07-24T06:52:28;99035.81;;;22.44;69.61
17230;BME280;8731;50.364;8.958;2023-07-24T06:56:51;99032.06;;;22.65;69.34
17230;BME280;8731;50.364;8.958;2023-07-24T07:01:14;99042.66;;;22.72;67.62
17230;BME280;8731;50.364;8.958;2023-07-24T07:05:37;99035.34;;;22.90;67.04
17230;BME280;8731;50.364;8.958;2023-07-24T07:09:59;99041.06;;;23.11;66.63
17230;BME280;8731;50.364;8.958;2023-07-24T07:14:21;99035.69;;;23.04;66.17
17230;BME280;8731;50.364;8.958;2023-07-24T07:18:46;99042.22;;;23.22;65.52
17230;BME280;8731;50.364;8.958;2023-07-24T07:23:08;99039.47;;;23.54;65.43
17230;BME280;8731;50.364;8.958;2023-07-24T07:27:31;99037.41;;;23.39;65.75
17230;BME280;8731;50.364;8.958;2023-07-24T07:31:53;99030.91;;;23.96;64.36
17230;BME280;8731;50.364;8.958;2023-07-24T07:36:17;99024.91;;;24.42;62.23
17230;BME280;8731;50.364;8.958;2023-07-24T07:40:42;99011.75;;;24.84;62.51
17230;BME280;8731;50.364;8.958;2023-07-24T07:45:05;99005.91;;;24.97;61.68
17230;BME280;8731;50.364;8.958;2023-07-24T07:49:29;99000.03;;;25.07;59.56
17230;BME280;8731;50.364;8.958;2023-07-24T07:53:53;99000.69;;;25.52;60.16
17230;BME280;8731;50.364;8.958;2023-07-24T07:58:15;98999.91;;;25.56;60.66
17230;BME280;8731;50.364;8.958;2023-07-24T08:02:38;99001.25;;;25.31;59.35
17230;BME280;8731;50.364;8.958;2023-07-24T08:07:02;98996.69;;;25.75;59.69
17230;BME280;8731;50.364;8.958;2023-07-24T08:11:26;98998.19;;;25.56;58.36
17230;BME280;8731;50.364;8.958;2023-07-24T08:15:49;98989.78;;;25.79;59.32
17230;BME280;8731;50.364;8.958;2023-07-24T08:20:12;98987.22;;;25.80;60.00
17230;BME280;8731;50.364;8.958;2023-07-24T08:24:34;98992.97;;;25.56;58.11
17230;BME280;8731;50.364;8.958;2023-07-24T08:28:58;98991.25;;;25.58;58.70
17230;BME280;8731;50.364;8.958;2023-07-24T08:33:21;98983.56;;;25.08;59.51
17230;BME280;8731;50.364;8.958;2023-07-24T08:37:43;98985.72;;;25.37;60.47
17230;BME280;8731;50.364;8.958;2023-07-24T08:42:10;98979.72;;;25.43;59.65
17230;BME280;8731;50.364;8.958;2023-07-24T08:46:37;98967.22;;;25.19;60.19
17230;BME280;8731;50.364;8.958;2023-07-24T08:51:02;98965.47;;;25.18;59.84
17230;BME280;8731;50.364;8.958;2023-07-24T08:55:25;98951.16;;;24.93;59.52
17230;BME280;8731;50.364;8.958;2023-07-24T08:59:48;98953.22;;;25.11;59.42
17230;BME280;8731;50.364;8.958;2023-07-24T09:04:12;98942.34;;;25.42;59.92
17230;BME280;8731;50.364;8.958;2023-07-24T09:08:36;98937.06;;;26.03;57.49
17230;BME280;8731;50.364;8.958;2023-07-24T09:12:59;98943.25;;;26.12;56.34
17230;BME280;8731;50.364;8.958;2023-07-24T09:17:24;98960.97;;;26.44;55.95
17230;BME280;8731;50.364;8.958;2023-07-24T09:21:47;98957.34;;;27.27;55.75
17230;BME280;8731;50.364;8.958;2023-07-24T09:26:10;98960.00;;;27.40;53.99
17230;BME280;8731;50.364;8.958;2023-07-24T09:30:32;98943.66;;;27.70;53.30
17230;BME280;8731;50.364;8.958;2023-07-24T09:34:56;98939.16;;;27.49;52.22
17230;BME280;8731;50.364;8.958;2023-07-24T09:39:23;98926.41;;;28.46;51.36
17230;BME280;8731;50.364;8.958;2023-07-24T09:43:46;98910.69;;;28.58;49.73
17230;BME280;8731;50.364;8.958;2023-07-24T09:48:09;98900.22;;;28.56;50.52
17230;BME280;8731;50.364;8.958;2023-07-24T09:52:36;98887.03;;;27.98;50.30
17230;BME280;8731;50.364;8.958;2023-07-24T09:57:05;98885.38;;;28.25;50.77
17230;BME280;8731;50.364;8.958;2023-07-24T10:01:28;98876.53;;;27.86;50.47
17230;BME280;8731;50.364;8.958;2023-07-24T10:05:54;98878.31;;;27.95;50.15
17230;BME280;8731;50.364;8.958;2023-07-24T10:10:17;98892.28;;;28.03;50.83
17230;BME280;8731;50.364;8.958;2023-07-24T10:14:43;98881.91;;;28.44;50.25
17230;BME280;8731;50.364;8.958;2023-07-24T10:19:13;98893.16;;;28.14;50.20
17230;BME280;8731;50.364;8.958;2023-07-24T10:23:37;98881.91;;;28.41;49.76
17230;BME280;8731;50.364;8.958;2023-07-24T10:28:03;98893.16;;;27.93;50.78
17230;BME280;8731;50.364;8.958;2023-07-24T10:32:29;98884.44;;;28.01;50.10
17230;BME280;8731;50.364;8.958;2023-07-24T10:37:02;98895.78;;;28.03;50.77
17230;BME280;8731;50.364;8.958;2023-07-24T10:41:34;98881.81;;;28.07;51.51
17230;BME280;8731;50.364;8.958;2023-07-24T10:45:58;98875.63;;;27.69;51.48
17230;BME280;8731;50.364;8.958;2023-07-24T10:50:21;98869.44;;;27.51;51.26
17230;BME280;8731;50.364;8.958;2023-07-24T10:54:44;98873.03;;;27.73;51.22
17230;BME280;8731;50.364;8.958;2023-07-24T10:59:11;98871.28;;;27.74;50.38
17230;BME280;8731;50.364;8.958;2023-07-24T11:03:36;98876.41;;;27.56;50.52
17230;BME280;8731;50.364;8.958;2023-07-24T11:08:00;98865.97;;;27.62;49.17
17230;BME280;8731;50.364;8.958;2023-07-24T11:12:29;98854.50;;;27.26;49.37
17230;BME280;8731;50.364;8.958;2023-07-24T11:16:52;98853.81;;;27.67;49.02
17230;BME280;8731;50.364;8.958;2023-07-24T11:21:15;98843.44;;;27.97;48.74
17230;BME280;8731;50.364;8.958;2023-07-24T11:25:39;98824.97;;;27.51;49.20
17230;BME280;8731;50.364;8.958;2023-07-24T11:30:02;98821.63;;;27.92;49.05
17230;BME280;8731;50.364;8.958;2023-07-24T11:34:25;98828.41;;;27.44;48.14
17230;BME280;8731;50.364;8.958;2023-07-24T11:38:49;98820.63;;;27.50;47.28
17230;BME280;8731;50.364;8.958;2023-07-24T11:43:17;98815.50;;;27.93;47.87
17230;BME280;8731;50.364;8.958;2023-07-24T11:47:44;98812.00;;;27.90;46.61
17230;BME280;8731;50.364;8.958;2023-07-24T11:52:07;98827.72;;;28.00;46.46
17230;BME280;8731;50.364;8.958;2023-07-24T11:56:30;98804.13;;;27.79;47.05
17230;BME280;8731;50.364;8.958;2023-07-24T12:00:55;98800.66;;;27.74;45.82
17230;BME280;8731;50.364;8.958;2023-07-24T12:05:18;98786.66;;;27.64;48.24
17230;BME280;8731;50.364;8.958;2023-07-24T12:09:50;98779.66;;;27.56;47.63
17230;BME280;8731;50.364;8.958;2023-07-24T12:14:13;98776.22;;;27.92;48.12
17230;BME280;8731;50.364;8.958;2023-07-24T12:18:37;98783.22;;;27.80;48.50
17230;BME280;8731;50.364;8.958;2023-07-24T12:23:00;98772.75;;;27.99;48.12
17230;BME280;8731;50.364;8.958;2023-07-24T12:33:24;98774.41;;;27.49;49.73
17230;BME280;8731;50.364;8.958;2023-07-24T12:37:47;98773.47;;;27.26;50.07
17230;BME280;8731;50.364;8.958;2023-07-24T12:42:10;98761.41;;;27.77;49.31
17230;BME280;8731;50.364;8.958;2023-07-24T12:46:33;98752.56;;;27.23;49.83
17230;BME280;8731;50.364;8.958;2023-07-24T12:50:55;98733.44;;;27.45;49.35
17230;BME280;8731;50.364;8.958;2023-07-24T12:55:21;98740.41;;;27.51;49.22
17230;BME280;8731;50.364;8.958;2023-07-24T12:59:44;98731.69;;;27.52;48.72
17230;BME280;8731;50.364;8.958;2023-07-24T13:04:07;98713.41;;;27.52;49.14
17230;BME280;8731;50.364;8.958;2023-07-24T13:08:29;98721.25;;;27.53;48.68
17230;BME280;8731;50.364;8.958;2023-07-24T13:12:54;98728.16;;;27.32;48.36
17230;BME280;8731;50.364;8.958;2023-07-24T13:17:16;98712.47;;;27.33;48.64
17230;BME280;8731;50.364;8.958;2023-07-24T13:21:39;98712.47;;;27.27;48.28
17230;BME280;8731;50.364;8.958;2023-07-24T13:26:03;98702.03;;;27.36;49.17
17230;BME280;8731;50.364;8.958;2023-07-24T13:30:27;98709.88;;;27.33;49.42
17230;BME280;8731;50.364;8.958;2023-07-24T13:34:49;98700.28;;;27.29;48.99
17230;BME280;8731;50.364;8.958;2023-07-24T13:39:12;98690.72;;;27.46;49.24
17230;BME280;8731;50.364;8.958;2023-07-24T13:43:34;98678.53;;;27.47;49.57
17230;BME280;8731;50.364;8.958;2023-07-24T13:47:58;98658.47;;;27.47;49.45
17230;BME280;8731;50.364;8.958;2023-07-24T13:52:22;98640.19;;;27.46;49.06
17230;BME280;8731;50.364;8.958;2023-07-24T13:56:44;98636.69;;;27.77;49.37
17230;BME280;8731;50.364;8.958;2023-07-24T14:01:08;98633.19;;;27.95;47.97
17230;BME280;8731;50.364;8.958;2023-07-24T14:05:33;98652.38;;;27.96;48.82
17230;BME280;8731;50.364;8.958;2023-07-24T14:09:56;98615.78;;;27.77;49.07
17230;BME280;8731;50.364;8.958;2023-07-24T14:14:19;98618.38;;;27.64;48.79
17230;BME280;8731;50.364;8.958;2023-07-24T14:18:43;98599.19;;;27.39;49.73
17230;BME280;8731;50.364;8.958;2023-07-24T14:23:07;98608.78;;;27.49;49.89
17230;BME280;8731;50.364;8.958;2023-07-24T14:27:31;98615.75;;;27.33;50.00
17230;BME280;8731;50.364;8.958;2023-07-24T14:31:54;98657.56;;;27.19;50.78
17230;BME280;8731;50.364;8.958;2023-07-24T14:36:16;98684.31;;;26.53;53.46
17230;BME280;8731;50.364;8.958;2023-07-24T14:40:41;98702.50;;;26.36;54.71
17230;BME280;8731;50.364;8.958;2023-07-24T14:45:04;98738.41;;;26.80;55.71
17230;BME280;8731;50.364;8.958;2023-07-24T14:49:28;98728.50;;;26.27;57.34
17230;BME280;8731;50.364;8.958;2023-07-24T14:53:50;98690.72;;;25.78;59.37
17230;BME280;8731;50.364;8.958;2023-07-24T14:58:14;98704.34;;;25.49;61.43
17230;BME280;8731;50.364;8.958;2023-07-24T15:02:36;98709.69;;;25.61;61.96
17230;BME280;8731;50.364;8.958;2023-07-24T15:06:59;98705.63;;;25.04;64.96
17230;BME280;8731;50.364;8.958;2023-07-24T15:11:22;98700.81;;;24.67;68.53
17230;BME280;8731;50.364;8.958;2023-07-24T15:15:46;98717.78;;;24.37;67.74
17230;BME280;8731;50.364;8.958;2023-07-24T15:20:09;98714.63;;;24.61;71.47
17230;BME280;8731;50.364;8.958;2023-07-24T15:24:34;98699.97;;;24.68;67.46
17230;BME280;8731;50.364;8.958;2023-07-24T15:28:58;98698.69;;;25.06;68.96
17230;BME280;8731;50.364;8.958;2023-07-24T15:33:23;98680.22;;;24.85;64.96
17230;BME280;8731;50.364;8.958;2023-07-24T15:37:45;98696.09;;;25.06;68.38
17230;BME280;8731;50.364;8.958;2023-07-24T15:42:09;98690.81;;;25.00;67.98
17230;BME280;8731;50.364;8.958;2023-07-24T15:46:31;98667.38;;;25.00;64.79
17230;BME280;8731;50.364;8.958;2023-07-24T15:50:55;98674.53;;;25.20;63.35
17230;BME280;8731;50.364;8.958;2023-07-24T15:55:18;98703.06;;;25.07;64.12
17230;BME280;8731;50.364;8.958;2023-07-24T15:59:41;98685.13;;;25.36;63.94
17230;BME280;8731;50.364;8.958;2023-07-24T16:04:03;98665.75;;;25.08;64.02
17230;BME280;8731;50.364;8.958;2023-07-24T16:08:27;98669.41;;;25.27;64.08
17230;BME280;8731;50.364;8.958;2023-07-24T16:12:50;98684.09;;;25.19;65.55
17230;BME280;8731;50.364;8.958;2023-07-24T16:17:12;98696.31;;;25.26;64.53
17230;BME280;8731;50.364;8.958;2023-07-24T16:21:35;98693.72;;;25.28;65.19
17230;BME280;8731;50.364;8.958;2023-07-24T16:25:59;98703.97;;;24.43;70.35
17230;BME280;8731;50.364;8.958;2023-07-24T16:30:22;98697.94;;;24.47;69.89
17230;BME280;8731;50.364;8.958;2023-07-24T16:34:45;98690.56;;;24.82;68.21
17230;BME280;8731;50.364;8.958;2023-07-24T16:39:08;98683.66;;;24.84;67.83
17230;BME280;8731;50.364;8.958;2023-07-24T16:43:34;98690.28;;;24.58;69.57
17230;BME280;8731;50.364;8.958;2023-07-24T16:47:56;98696.69;;;24.22;68.22
17230;BME280;8731;50.364;8.958;2023-07-24T16:52:19;98700.97;;;24.17;69.93
17230;BME280;8731;50.364;8.958;2023-07-24T16:56:42;98709.50;;;24.10;69.00
17230;BME280;8731;50.364;8.958;2023-07-24T17:01:06;98720.53;;;23.92;70.17
17230;BME280;8731;50.364;8.958;2023-07-24T17:05:29;98720.34;;;23.83;71.48
17230;BME280;8731;50.364;8.958;2023-07-24T17:09:52;98720.88;;;24.13;70.55
17230;BME280;8731;50.364;8.958;2023-07-24T17:14:16;98724.19;;;24.05;69.22
17230;BME280;8731;50.364;8.958;2023-07-24T17:18:40;98724.03;;;23.94;71.45
17230;BME280;8731;50.364;8.958;2023-07-24T17:23:03;98739.66;;;23.97;71.72
17230;BME280;8731;50.364;8.958;2023-07-24T17:27:25;98744.97;;;24.03;71.66
17230;BME280;8731;50.364;8.958;2023-07-24T17:31:49;98762.88;;;23.86;72.44
17230;BME280;8731;50.364;8.958;2023-07-24T17:36:14;98766.66;;;24.04;66.02
17230;BME280;8731;50.364;8.958;2023-07-24T17:40:36;98770.81;;;23.93;65.92
17230;BME280;8731;50.364;8.958;2023-07-24T17:44:59;98770.97;;;23.55;65.62
17230;BME280;8731;50.364;8.958;2023-07-24T17:49:21;98776.69;;;23.82;64.69
17230;BME280;8731;50.364;8.958;2023-07-24T17:53:45;98780.09;;;23.78;63.91
17230;BME280;8731;50.364;8.958;2023-07-24T17:58:08;98791.53;;;23.89;63.10
17230;BME280;8731;50.364;8.958;2023-07-24T18:02:30;98805.16;;;23.75;63.80
17230;BME280;8731;50.364;8.958;2023-07-24T18:06:53;98786.69;;;23.61;63.60
17230;BME280;8731;50.364;8.958;2023-07-24T18:11:17;98794.13;;;23.43;63.23
17230;BME280;8731;50.364;8.958;2023-07-24T18:15:40;98799.16;;;23.35;62.52
17230;BME280;8731;50.364;8.958;2023-07-24T18:20:03;98795.97;;;23.48;62.42
17230;BME280;8731;50.364;8.958;2023-07-24T18:24:26;98800.22;;;23.45;61.89
17230;BME280;8731;50.364;8.958;2023-07-24T18:28:51;98799.38;;;23.46;62.02
17230;BME280;8731;50.364;8.958;2023-07-24T18:33:14;98803.78;;;23.50;61.85
17230;BME280;8731;50.364;8.958;2023-07-24T18:37:36;98810.44;;;23.36;62.23
17230;BME280;8731;50.364;8.958;2023-07-24T18:41:59;98805.19;;;23.33;62.01
17230;BME280;8731;50.364;8.958;2023-07-24T18:46:23;98813.97;;;23.41;62.72
17230;BME280;8731;50.364;8.958;2023-07-24T18:50:45;98812.81;;;23.25;62.30
17230;BME280;8731;50.364;8.958;2023-07-24T18:55:08;98824.78;;;23.18;62.27
17230;BME280;8731;50.364;8.958;2023-07-24T18:59:30;98842.09;;;23.18;63.05
17230;BME280;8731;50.364;8.958;2023-07-24T19:03:54;98845.44;;;23.12;63.28
17230;BME280;8731;50.364;8.958;2023-07-24T19:08:17;98846.19;;;23.07;63.10
17230;BME280;8731;50.364;8.958;2023-07-24T19:12:40;98853.84;;;22.99;63.08
17230;BME280;8731;50.364;8.958;2023-07-24T19:17:03;98857.38;;;23.03;62.99
17230;BME280;8731;50.364;8.958;2023-07-24T19:21:27;98865.56;;;22.82;63.74
17230;BME280;8731;50.364;8.958;2023-07-24T19:25:54;98866.16;;;22.72;64.00
17230;BME280;8731;50.364;8.958;2023-07-24T19:30:17;98866.22;;;22.75;63.86
17230;BME280;8731;50.364;8.958;2023-07-24T19:34:39;98878.84;;;22.59;64.82
17230;BME280;8731;50.364;8.958;2023-07-24T19:39:05;98900.28;;;22.52;64.94
17230;BME280;8731;50.364;8.958;2023-07-24T19:43:27;98899.41;;;22.52;65.16
17230;BME280;8731;50.364;8.958;2023-07-24T19:47:50;98911.00;;;22.31;66.43
17230;BME280;8731;50.364;8.958;2023-07-24T19:58:16;98931.91;;;21.76;69.03
17230;BME280;8731;50.364;8.958;2023-07-24T20:02:39;98939.06;;;21.83;68.34
17230;BME280;8731;50.364;8.958;2023-07-24T20:11:25;98949.34;;;21.52;70.33
17230;BME280;8731;50.364;8.958;2023-07-24T20:15:49;98948.41;;;21.48;70.10
17230;BME280;8731;50.364;8.958;2023-07-24T20:20:12;98957.22;;;21.26;70.98
17230;BME280;8731;50.364;8.958;2023-07-24T20:24:35;98963.63;;;21.37;69.57
17230;BME280;8731;50.364;8.958;2023-07-24T20:28:57;98963.81;;;20.63;73.93
17230;BME280;8731;50.364;8.958;2023-07-24T20:33:22;98964.19;;;21.02;70.62
17230;BME280;8731;50.364;8.958;2023-07-24T20:37:46;98963.69;;;20.85;71.62
17230;BME280;8731;50.364;8.958;2023-07-24T20:42:10;98959.03;;;20.75;72.01
17230;BME280;8731;50.364;8.958;2023-07-24T20:46:32;98962.38;;;20.72;71.55
17230;BME280;8731;50.364;8.958;2023-07-24T20:50:56;98963.91;;;20.16;74.21
17230;BME280;8731;50.364;8.958;2023-07-24T20:55:19;98953.72;;;20.21;72.88
17230;BME280;8731;50.364;8.958;2023-07-24T20:59:41;98959.47;;;19.88;73.77
17230;BME280;8731;50.364;8.958;2023-07-24T21:04:04;98967.66;;;19.77;73.41
17230;BME280;8731;50.364;8.958;2023-07-24T21:08:28;98973.66;;;19.53;73.98
17230;BME280;8731;50.364;8.958;2023-07-24T21:12:50;98983.44;;;19.62;72.48
17230;BME280;8731;50.364;8.958;2023-07-24T21:17:13;98984.09;;;19.56;72.71
17230;BME280;8731;50.364;8.958;2023-07-24T21:21:36;98982.75;;;19.44;73.44
17230;BME280;8731;50.364;8.958;2023-07-24T21:26:00;98979.16;;;19.62;72.16
17230;BME280;8731;50.364;8.958;2023-07-24T21:30:22;98985.44;;;19.47;72.34
17230;BME280;8731;50.364;8.958;2023-07-24T21:34:45;98989.28;;;19.36;72.72
17230;BME280;8731;50.364;8.958;2023-07-24T21:39:07;98991.25;;;19.19;73.81
17230;BME280;8731;50.364;8.958;2023-07-24T21:43:31;98994.88;;;19.24;72.79
17230;BME280;8731;50.364;8.958;2023-07-24T21:47:54;98996.78;;;18.86;74.65
17230;BME280;8731;50.364;8.958;2023-07-24T21:52:16;98998.81;;;18.93;73.85
17230;BME280;8731;50.364;8.958;2023-07-24T21:56:39;99002.47;;;18.58;75.46
17230;BME280;8731;50.364;8.958;2023-07-24T22:01:03;99005.13;;;18.60;75.11
17230;BME280;8731;50.364;8.958;2023-07-24T22:05:25;99005.69;;;18.53;74.62
17230;BME280;8731;50.364;8.958;2023-07-24T22:09:48;99018.16;;;18.63;73.57
17230;BME280;8731;50.364;8.958;2023-07-24T22:14:10;99020.41;;;18.55;73.72
17230;BME280;8731;50.364;8.958;2023-07-24T22:18:36;99022.09;;;18.55;73.52
17230;BME280;8731;50.364;8.958;2023-07-24T22:22:58;99026.19;;;18.50;73.82
17230;BME280;8731;50.364;8.958;2023-07-24T22:27:21;99027.94;;;18.51;73.55
17230;BME280;8731;50.364;8.958;2023-07-24T22:31:43;99029.56;;;17.71;76.74
17230;BME280;8731;50.364;8.958;2023-07-24T22:36:07;99030.66;;;17.76;75.78
17230;BME280;8731;50.364;8.958;2023-07-24T22:40:30;99031.06;;;17.31;77.90
17230;BME280;8731;50.364;8.958;2023-07-24T22:44:53;99028.09;;;17.76;75.57
17230;BME280;8731;50.364;8.958;2023-07-24T22:49:16;99035.94;;;17.79;74.77
17230;BME280;8731;50.364;8.958;2023-07-24T22:53:40;99047.34;;;17.49;76.98
17230;BME280;8731;50.364;8.958;2023-07-24T22:58:02;99045.16;;;17.39;77.22
17230;BME280;8731;50.364;8.958;2023-07-24T23:02:25;99039.13;;;17.56;76.05
17230;BME280;8731;50.364;8.958;2023-07-24T23:06:49;99045.97;;;17.56;75.73
17230;BME280;8731;50.364;8.958;2023-07-24T23:11:14;99042.91;;;17.09;79.16
17230;BME280;8731;50.364;8.958;2023-07-24T23:15:37;99040.75;;;17.18;78.84
17230;BME280;8731;50.364;8.958;2023-07-24T23:20:00;99041.50;;;17.34;76.66
17230;BME280;8731;50.364;8.958;2023-07-24T23:24:23;99047.66;;;16.84;80.32
17230;BME280;8731;50.364;8.958;2023-07-24T23:28:47;99047.53;;;17.16;77.63
17230;BME280;8731;50.364;8.958;2023-07-24T23:33:12;99055.16;;;17.15;78.60
17230;BME280;8731;50.364;8.958;2023-07-24T23:37:35;99048.41;;;17.35;76.73
17230;BME280;8731;50.364;8.958;2023-07-24T23:41:58;99044.88;;;17.33;77.11
17230;BME280;8731;50.364;8.958;2023-07-24T23:46:21;99047.66;;;16.84;81.39
17230;BME280;8731;50.364;8.958;2023-07-24T23:50:44;99049.25;;;16.66;83.61